createdAt,value
2023-03-08T00:01:19.939Z,7.70
2023-03-08T00:06:23.928Z,7.70
2023-03-08T00:11:27.775Z,7.80
2023-03-08T00:16:31.993Z,7.70
2023-03-08T00:21:35.167Z,7.70
2023-03-08T00:26:38.135Z,7.80
2023-03-08T00:31:42.588Z,7.80
2023-03-08T00:36:45.725Z,7.70
2023-03-08T00:41:48.565Z,7.60
2023-03-08T00:46:52.774Z,7.60
2023-03-08T00:51:55.629Z,7.50
2023-03-08T00:56:58.521Z,7.50
2023-03-08T01:02:03.028Z,7.50
2023-03-08T01:07:06.021Z,7.50
2023-03-08T01:12:09.179Z,7.40
2023-03-08T01:17:14.275Z,7.50
2023-03-08T01:22:17.358Z,7.40
2023-03-08T01:27:20.230Z,7.40
2023-03-08T01:32:24.448Z,7.50
2023-03-08T01:37:27.758Z,7.50
2023-03-08T01:42:30.985Z,7.50
2023-03-08T01:47:36.009Z,7.30
2023-03-08T01:52:50.504Z,7.30
2023-03-08T01:57:56.300Z,7.40
2023-03-08T02:03:05.547Z,7.30
2023-03-08T02:08:08.624Z,7.30
2023-03-08T02:13:14.123Z,7.30
2023-03-08T02:18:20.693Z,7.30
2023-03-08T02:23:26.486Z,7.30
2023-03-08T02:28:30.828Z,7.30
2023-03-08T02:33:34.854Z,7.20
2023-03-08T02:38:39.128Z,7.40
2023-03-08T02:43:42.053Z,7.20
2023-03-08T02:48:46.083Z,7.30
2023-03-08T02:53:50.500Z,7.20
2023-03-08T02:58:53.642Z,7.10
2023-03-08T03:03:58.342Z,7.10
2023-03-08T03:09:02.642Z,7.20
2023-03-08T03:14:05.866Z,7.00
2023-03-08T03:19:14.100Z,7.00
2023-03-08T03:24:18.587Z,6.90
2023-03-08T03:29:27.004Z,6.80
2023-03-08T03:34:38.234Z,6.90
2023-03-08T03:39:43.292Z,7.00
2023-03-08T03:44:49.449Z,7.00
2023-03-08T03:49:56.414Z,7.00
2023-03-08T03:55:02.273Z,7.00
2023-03-08T04:00:07.136Z,7.10
2023-03-08T04:05:16.522Z,7.10
2023-03-08T04:10:24.789Z,7.10
2023-03-08T04:15:29.022Z,7.20
2023-03-08T04:20:34.067Z,7.30
2023-03-08T04:25:44.717Z,7.20
2023-03-08T04:30:51.105Z,7.20
2023-03-08T04:35:56.859Z,7.30
2023-03-08T04:41:05.686Z,7.30
2023-03-08T04:46:31.542Z,7.30
2023-03-08T04:51:35.718Z,7.30
2023-03-08T04:56:42.486Z,7.40
2023-03-08T05:01:47.134Z,7.40
2023-03-08T05:06:50.079Z,7.50
2023-03-08T05:11:59.511Z,7.40
2023-03-08T05:17:11.115Z,7.50
2023-03-08T05:22:14.910Z,7.50
2023-03-08T05:27:24.245Z,7.50
2023-03-08T05:32:28.476Z,7.40
2023-03-08T05:37:31.511Z,7.50
2023-03-08T05:42:39.500Z,7.50
2023-03-08T05:47:43.221Z,7.50
2023-03-08T05:52:47.318Z,7.60
2023-03-08T05:57:56.348Z,7.50
2023-03-08T06:03:03.782Z,7.30
2023-03-08T06:08:08.176Z,7.40
2023-03-08T06:13:12.623Z,7.20
2023-03-08T06:18:15.727Z,7.20
2023-03-08T06:23:18.819Z,7.10
2023-03-08T06:28:23.885Z,7.20
2023-03-08T06:33:30.027Z,7.10
2023-03-08T06:38:34.997Z,7.10
2023-03-08T06:43:39.282Z,7.10
2023-03-08T06:48:42.350Z,6.90
2023-03-08T06:53:45.916Z,6.80
2023-03-08T06:58:52.338Z,6.80
2023-03-08T07:03:55.226Z,6.80
2023-03-08T07:08:58.225Z,6.80
2023-03-08T07:14:02.391Z,6.80
2023-03-08T07:19:05.261Z,6.80
2023-03-08T07:24:08.545Z,6.90
2023-03-08T07:29:12.732Z,6.90
2023-03-08T07:34:15.590Z,7.00
2023-03-08T07:39:18.444Z,7.10
2023-03-08T07:44:22.840Z,7.20
2023-03-08T07:49:25.966Z,7.20
2023-03-08T07:54:28.986Z,7.30
2023-03-08T07:59:33.363Z,7.40
2023-03-08T08:04:36.249Z,7.50
2023-03-08T08:09:39.338Z,7.50
2023-03-08T08:14:44.608Z,7.50
2023-03-08T08:19:47.571Z,7.60
2023-03-08T08:24:50.467Z,7.60
2023-03-08T08:29:54.643Z,7.80
2023-03-08T08:34:59.314Z,7.80
2023-03-08T08:40:03.957Z,7.80
2023-03-08T08:45:09.672Z,7.90
2023-03-08T08:50:14.137Z,7.90
2023-03-08T08:55:17.254Z,8.10
2023-03-08T09:00:21.758Z,8.20
2023-03-08T09:05:24.783Z,8.20
2023-03-08T09:10:29.243Z,8.40
2023-03-08T09:15:33.565Z,8.40
2023-03-08T09:20:36.491Z,8.60
2023-03-08T09:25:39.727Z,8.70
2023-03-08T09:30:43.929Z,8.80
2023-03-08T09:35:56.706Z,8.80
2023-03-08T09:41:13.121Z,8.90
2023-03-08T09:46:22.649Z,9.00
2023-03-08T09:51:30.407Z,9.20
2023-03-08T09:56:38.090Z,9.20
2023-03-08T10:01:49.453Z,9.30
2023-03-08T10:07:02.816Z,9.40
2023-03-08T10:12:18.999Z,9.50
2023-03-08T10:17:25.859Z,9.70
2023-03-08T10:22:31.238Z,9.80
2023-03-08T10:27:36.101Z,9.90
2023-03-08T10:32:44.938Z,10.00
2023-03-08T10:37:52.140Z,10.10
2023-03-08T10:43:00.959Z,10.20
2023-03-08T10:48:06.874Z,10.30
2023-03-08T10:53:11.217Z,10.40
2023-03-08T10:58:35.864Z,10.40
2023-03-08T11:03:40.075Z,10.50
2023-03-08T11:08:54.415Z,10.60
2023-03-08T11:13:57.279Z,10.80
2023-03-08T11:19:10.476Z,10.80
2023-03-08T11:24:22.650Z,10.90
2023-03-08T11:29:36.905Z,10.90
2023-03-08T11:34:58.530Z,11.00
2023-03-08T11:40:14.544Z,11.10
2023-03-08T11:45:23.671Z,11.20
2023-03-08T11:50:31.508Z,11.20
2023-03-08T11:55:47.033Z,11.20
2023-03-08T12:00:53.985Z,11.40
2023-03-08T12:06:01.846Z,11.30
2023-03-08T12:11:08.203Z,11.40
2023-03-08T12:16:18.842Z,11.50
2023-03-08T12:21:34.417Z,11.50
2023-03-08T12:26:43.715Z,11.60
2023-03-08T12:31:49.135Z,11.60
2023-03-08T12:36:53.431Z,11.70
2023-03-08T12:42:01.263Z,11.80
2023-03-08T12:47:20.728Z,11.80
2023-03-08T12:52:31.409Z,11.90
2023-03-08T12:57:42.834Z,12.00
2023-03-08T13:02:45.771Z,12.10
2023-03-08T13:08:01.768Z,12.10
2023-03-08T13:13:39.146Z,12.20
2023-03-08T13:18:43.358Z,12.30
2023-03-08T13:23:54.024Z,12.30
2023-03-08T13:28:57.630Z,12.40
2023-03-08T13:34:01.203Z,12.50
2023-03-08T13:39:07.451Z,12.60
2023-03-08T13:44:16.504Z,12.60
2023-03-08T13:49:23.826Z,12.70
2023-03-08T13:54:30.460Z,12.70
2023-03-08T13:59:34.654Z,12.60
2023-03-08T14:04:43.391Z,12.80
2023-03-08T14:09:47.646Z,12.80
2023-03-08T14:14:54.386Z,12.80
2023-03-08T14:19:58.817Z,12.90
2023-03-08T14:25:05.081Z,13.00
2023-03-08T14:30:15.624Z,13.00
2023-03-08T14:35:23.852Z,13.10
2023-03-08T14:40:31.471Z,13.20
2023-03-08T14:45:37.421Z,13.20
2023-03-08T14:50:40.353Z,13.20
2023-03-08T14:55:45.084Z,13.20
2023-03-08T15:00:51.565Z,13.20
2023-03-08T15:06:16.716Z,13.30
2023-03-08T15:11:21.509Z,13.30
2023-03-08T15:16:24.392Z,13.30
2023-03-08T15:21:30.387Z,13.40
2023-03-08T15:26:34.902Z,13.40
2023-03-08T15:31:37.807Z,13.40
2023-03-08T15:36:40.693Z,13.50
2023-03-08T15:41:45.123Z,13.50
2023-03-08T15:46:48.031Z,13.50
2023-03-08T15:51:50.886Z,13.60
2023-03-08T15:56:55.090Z,13.70
2023-03-08T16:01:58.047Z,13.70
2023-03-08T16:07:00.906Z,13.70
2023-03-08T16:12:05.637Z,13.80
2023-03-08T16:17:09.048Z,13.80
2023-03-08T16:22:12.482Z,13.70
2023-03-08T16:27:20.186Z,13.80
2023-03-08T16:32:23.327Z,13.80
2023-03-08T16:37:26.939Z,13.80
2023-03-08T16:42:31.317Z,13.80
2023-03-08T16:47:34.189Z,13.70
2023-03-08T16:52:37.048Z,13.70
2023-03-08T16:57:41.238Z,13.80
2023-03-08T17:02:45.397Z,13.80
2023-03-08T17:07:48.437Z,13.70
2023-03-08T17:12:52.681Z,13.80
2023-03-08T17:17:55.914Z,13.80
2023-03-08T17:22:58.802Z,13.70
2023-03-08T17:28:03.608Z,14.00
2023-03-08T17:33:06.763Z,13.80
2023-03-08T17:38:09.755Z,13.70
2023-03-08T17:43:14.111Z,13.70
2023-03-08T17:48:17.119Z,13.60
2023-03-08T17:53:20.294Z,13.60
2023-03-08T17:58:24.568Z,13.60
2023-03-08T18:03:27.436Z,13.70
2023-03-08T18:08:35.664Z,13.70
2023-03-08T18:13:40.911Z,13.70
2023-03-08T18:18:45.629Z,13.70
2023-03-08T18:23:49.145Z,13.70
2023-03-08T18:28:53.456Z,13.80
2023-03-08T18:33:56.379Z,13.70
2023-03-08T18:38:59.273Z,13.70
2023-03-08T18:44:03.540Z,13.80
2023-03-08T18:49:08.701Z,13.80
2023-03-08T18:54:13.439Z,13.80
2023-03-08T18:59:17.665Z,13.80
2023-03-08T19:04:20.594Z,13.80
2023-03-08T19:09:23.460Z,13.80
2023-03-08T19:14:27.758Z,13.90
2023-03-08T19:19:36.478Z,13.80
2023-03-08T19:24:39.433Z,13.80
2023-03-08T19:29:43.691Z,13.80
2023-03-08T19:34:48.394Z,13.90
2023-03-08T19:39:51.458Z,13.90
2023-03-08T19:44:55.823Z,13.90
2023-03-08T19:50:00.840Z,13.90
2023-03-08T19:55:05.086Z,14.00
2023-03-08T20:00:13.791Z,14.00
2023-03-08T20:05:18.565Z,14.10
2023-03-08T20:10:30.323Z,14.00
2023-03-08T20:15:47.720Z,14.00
2023-03-08T20:20:51.250Z,14.10
2023-03-08T20:25:54.332Z,14.10
2023-03-08T20:30:58.849Z,14.10
2023-03-08T20:36:02.021Z,14.10
2023-03-08T20:41:09.622Z,14.10
2023-03-08T20:46:16.072Z,14.20
2023-03-08T20:51:21.044Z,14.00
2023-03-08T20:56:25.905Z,13.80
2023-03-08T21:01:44.988Z,13.80
2023-03-08T21:06:48.834Z,13.90
2023-03-08T21:11:51.737Z,13.80
2023-03-08T21:16:56.019Z,13.80
2023-03-08T21:22:07.163Z,13.70
2023-03-08T21:27:10.010Z,13.80
2023-03-08T21:32:14.207Z,13.80
2023-03-08T21:37:17.064Z,13.90
2023-03-08T21:42:20.112Z,14.00
2023-03-08T21:47:24.321Z,14.00
2023-03-08T21:52:27.207Z,14.10
2023-03-08T21:57:30.096Z,14.10
2023-03-08T22:02:34.310Z,14.20
2023-03-08T22:07:37.186Z,14.20
2023-03-08T22:12:41.356Z,14.10
2023-03-08T22:17:45.547Z,14.20
2023-03-08T22:22:48.418Z,14.10
2023-03-08T22:27:51.330Z,13.90
2023-03-08T22:32:55.889Z,13.80
2023-03-08T22:37:58.855Z,13.70
2023-03-08T22:43:01.689Z,13.70
2023-03-08T22:48:06.864Z,13.70
2023-03-08T22:53:09.875Z,13.70
2023-03-08T22:58:12.742Z,13.70
2023-03-08T23:03:17.040Z,13.60
2023-03-08T23:08:19.954Z,13.60
2023-03-08T23:13:33.554Z,13.50
2023-03-08T23:18:38.653Z,13.60
2023-03-08T23:23:42.398Z,13.60
2023-03-08T23:28:45.528Z,13.60
2023-03-08T23:33:50.411Z,13.60
2023-03-08T23:38:53.309Z,13.60
2023-03-08T23:43:57.656Z,13.70
2023-03-08T23:49:02.779Z,13.50
2023-03-08T23:54:05.756Z,13.30
2023-03-08T23:59:12.484Z,13.30
